sensor_id;sensor_type;location;lat;lon;timestamp;P1;durP1;ratioP1;P2;durP2;ratioP2
13764;SDS011;6953;48.810;9.204;2023-12-20T00:01:19;0.50;;;0.50;;
13764;SDS011;6953;48.810;9.204;2023-12-20T00:03:44;0.60;;;0.60;;
13764;SDS011;6953;48.810;9.204;2023-12-20T00:06:09;0.60;;;0.60;;
13764;SDS011;6953;48.810;9.204;2023-12-20T00:08:35;0.60;;;0.60;;
13764;SDS011;6953;48.810;9.204;2023-12-20T00:11:00;0.60;;;0.60;;
13764;SDS011;6953;48.810;9.204;2023-12-20T00:13:25;0.50;;;0.50;;
13764;SDS011;6953;48.810;9.204;2023-12-20T00:15:51;0.63;;;0.63;;
13764;SDS011;6953;48.810;9.204;2023-12-20T00:18:16;0.60;;;0.60;;
13764;SDS011;6953;48.810;9.204;2023-12-20T00:20:41;0.40;;;0.40;;
13764;SDS011;6953;48.810;9.204;2023-12-20T00:23:06;0.60;;;0.60;;
13764;SDS011;6953;48.810;9.204;2023-12-20T00:25:33;0.50;;;0.50;;
13764;SDS011;6953;48.810;9.204;2023-12-20T00:28:00;0.60;;;0.60;;
13764;SDS011;6953;48.810;9.204;2023-12-20T00:30:25;0.50;;;0.50;;
13764;SDS011;6953;48.810;9.204;2023-12-20T00:32:51;0.50;;;0.50;;
13764;SDS011;6953;48.810;9.204;2023-12-20T00:35:16;0.60;;;0.60;;
13764;SDS011;6953;48.810;9.204;2023-12-20T00:37:44;0.50;;;0.50;;
13764;SDS011;6953;48.810;9.204;2023-12-20T00:40:10;0.45;;;0.45;;
13764;SDS011;6953;48.810;9.204;2023-12-20T00:42:36;0.50;;;0.50;;
13764;SDS011;6953;48.810;9.204;2023-12-20T00:45:01;0.50;;;0.50;;
13764;SDS011;6953;48.810;9.204;2023-12-20T00:47:27;0.60;;;0.60;;
13764;SDS011;6953;48.810;9.204;2023-12-20T00:49:53;0.60;;;0.60;;
13764;SDS011;6953;48.810;9.204;2023-12-20T00:52:18;0.60;;;0.60;;
13764;SDS011;6953;48.810;9.204;2023-12-20T00:54:44;0.60;;;0.60;;
13764;SDS011;6953;48.810;9.204;2023-12-20T00:57:09;0.60;;;0.60;;
13764;SDS011;6953;48.810;9.204;2023-12-20T00:59:35;0.50;;;0.50;;
13764;SDS011;6953;48.810;9.204;2023-12-20T01:02:00;0.50;;;0.50;;
13764;SDS011;6953;48.810;9.204;2023-12-20T01:04:26;0.60;;;0.60;;
13764;SDS011;6953;48.810;9.204;2023-12-20T01:06:51;0.50;;;0.50;;
13764;SDS011;6953;48.810;9.204;2023-12-20T01:09:17;0.60;;;0.60;;
13764;SDS011;6953;48.810;9.204;2023-12-20T01:11:43;0.70;;;0.70;;
13764;SDS011;6953;48.810;9.204;2023-12-20T01:14:09;0.60;;;0.60;;
13764;SDS011;6953;48.810;9.204;2023-12-20T01:16:34;0.50;;;0.50;;
13764;SDS011;6953;48.810;9.204;2023-12-20T01:18:59;0.60;;;0.60;;
13764;SDS011;6953;48.810;9.204;2023-12-20T01:21:25;0.60;;;0.60;;
13764;SDS011;6953;48.810;9.204;2023-12-20T01:23:50;0.60;;;0.60;;
13764;SDS011;6953;48.810;9.204;2023-12-20T01:26:16;0.60;;;0.60;;
13764;SDS011;6953;48.810;9.204;2023-12-20T01:28:41;0.60;;;0.60;;
13764;SDS011;6953;48.810;9.204;2023-12-20T01:31:07;0.50;;;0.50;;
13764;SDS011;6953;48.810;9.204;2023-12-20T01:33:32;0.50;;;0.50;;
13764;SDS011;6953;48.810;9.204;2023-12-20T01:35:57;0.50;;;0.50;;
13764;SDS011;6953;48.810;9.204;2023-12-20T01:38:23;0.47;;;0.47;;
13764;SDS011;6953;48.810;9.204;2023-12-20T01:40:48;0.60;;;0.60;;
13764;SDS011;6953;48.810;9.204;2023-12-20T01:43:13;0.50;;;0.50;;
13764;SDS011;6953;48.810;9.204;2023-12-20T01:45:39;0.60;;;0.60;;
13764;SDS011;6953;48.810;9.204;2023-12-20T01:48:05;0.70;;;0.70;;
13764;SDS011;6953;48.810;9.204;2023-12-20T01:50:31;0.60;;;0.60;;
13764;SDS011;6953;48.810;9.204;2023-12-20T01:53:00;0.60;;;0.60;;
13764;SDS011;6953;48.810;9.204;2023-12-20T01:55:27;0.60;;;0.60;;
13764;SDS011;6953;48.810;9.204;2023-12-20T01:57:56;0.70;;;0.70;;
13764;SDS011;6953;48.810;9.204;2023-12-20T02:00:23;0.70;;;0.70;;
13764;SDS011;6953;48.810;9.204;2023-12-20T02:02:51;0.70;;;0.70;;
13764;SDS011;6953;48.810;9.204;2023-12-20T02:05:18;0.60;;;0.60;;
13764;SDS011;6953;48.810;9.204;2023-12-20T02:07:43;0.60;;;0.60;;
13764;SDS011;6953;48.810;9.204;2023-12-20T02:10:09;0.60;;;0.60;;
13764;SDS011;6953;48.810;9.204;2023-12-20T02:12:34;0.50;;;0.50;;
13764;SDS011;6953;48.810;9.204;2023-12-20T02:15:00;0.60;;;0.60;;
13764;SDS011;6953;48.810;9.204;2023-12-20T02:17:25;0.60;;;0.60;;
13764;SDS011;6953;48.810;9.204;2023-12-20T02:19:52;0.60;;;0.60;;
13764;SDS011;6953;48.810;9.204;2023-12-20T02:22:17;0.63;;;0.63;;
13764;SDS011;6953;48.810;9.204;2023-12-20T02:24:43;0.60;;;0.60;;
13764;SDS011;6953;48.810;9.204;2023-12-20T02:27:08;0.60;;;0.60;;
13764;SDS011;6953;48.810;9.204;2023-12-20T02:29:34;0.60;;;0.60;;
13764;SDS011;6953;48.810;9.204;2023-12-20T02:32:00;0.70;;;0.70;;
13764;SDS011;6953;48.810;9.204;2023-12-20T02:34:25;0.50;;;0.50;;
13764;SDS011;6953;48.810;9.204;2023-12-20T02:36:50;0.60;;;0.60;;
13764;SDS011;6953;48.810;9.204;2023-12-20T02:39:16;0.70;;;0.70;;
13764;SDS011;6953;48.810;9.204;2023-12-20T02:41:42;0.60;;;0.60;;
13764;SDS011;6953;48.810;9.204;2023-12-20T02:44:07;0.47;;;0.47;;
13764;SDS011;6953;48.810;9.204;2023-12-20T02:46:32;0.70;;;0.70;;
13764;SDS011;6953;48.810;9.204;2023-12-20T02:48:58;0.70;;;0.70;;
13764;SDS011;6953;48.810;9.204;2023-12-20T02:51:23;0.63;;;0.63;;
13764;SDS011;6953;48.810;9.204;2023-12-20T02:53:48;0.60;;;0.60;;
13764;SDS011;6953;48.810;9.204;2023-12-20T02:56:13;0.60;;;0.60;;
13764;SDS011;6953;48.810;9.204;2023-12-20T02:58:39;0.70;;;0.70;;
13764;SDS011;6953;48.810;9.204;2023-12-20T03:01:05;0.70;;;0.70;;
13764;SDS011;6953;48.810;9.204;2023-12-20T03:03:30;0.60;;;0.60;;
13764;SDS011;6953;48.810;9.204;2023-12-20T03:05:56;0.60;;;0.60;;
13764;SDS011;6953;48.810;9.204;2023-12-20T03:08:21;0.70;;;0.70;;
13764;SDS011;6953;48.810;9.204;2023-12-20T03:10:47;0.70;;;0.70;;
13764;SDS011;6953;48.810;9.204;2023-12-20T03:13:12;0.70;;;0.70;;
13764;SDS011;6953;48.810;9.204;2023-12-20T03:15:37;0.60;;;0.60;;
13764;SDS011;6953;48.810;9.204;2023-12-20T03:18:03;0.67;;;0.67;;
13764;SDS011;6953;48.810;9.204;2023-12-20T03:20:28;0.68;;;0.68;;
13764;SDS011;6953;48.810;9.204;2023-12-20T03:22:56;0.60;;;0.60;;
13764;SDS011;6953;48.810;9.204;2023-12-20T03:25:21;0.60;;;0.60;;
13764;SDS011;6953;48.810;9.204;2023-12-20T03:27:46;0.60;;;0.60;;
13764;SDS011;6953;48.810;9.204;2023-12-20T03:30:11;0.80;;;0.80;;
13764;SDS011;6953;48.810;9.204;2023-12-20T03:32:38;0.55;;;0.55;;
13764;SDS011;6953;48.810;9.204;2023-12-20T03:35:04;0.50;;;0.50;;
13764;SDS011;6953;48.810;9.204;2023-12-20T03:37:29;0.60;;;0.60;;
13764;SDS011;6953;48.810;9.204;2023-12-20T03:39:55;0.55;;;0.55;;
13764;SDS011;6953;48.810;9.204;2023-12-20T03:42:20;0.50;;;0.50;;
13764;SDS011;6953;48.810;9.204;2023-12-20T03:44:45;0.50;;;0.50;;
13764;SDS011;6953;48.810;9.204;2023-12-20T03:47:11;0.60;;;0.60;;
13764;SDS011;6953;48.810;9.204;2023-12-20T03:49:36;0.60;;;0.60;;
13764;SDS011;6953;48.810;9.204;2023-12-20T03:52:03;0.50;;;0.50;;
13764;SDS011;6953;48.810;9.204;2023-12-20T03:54:29;0.60;;;0.60;;
13764;SDS011;6953;48.810;9.204;2023-12-20T03:56:54;0.50;;;0.50;;
13764;SDS011;6953;48.810;9.204;2023-12-20T03:59:20;0.60;;;0.60;;
13764;SDS011;6953;48.810;9.204;2023-12-20T04:01:45;0.70;;;0.70;;
13764;SDS011;6953;48.810;9.204;2023-12-20T04:04:10;0.60;;;0.60;;
13764;SDS011;6953;48.810;9.204;2023-12-20T04:06:36;0.57;;;0.57;;
13764;SDS011;6953;48.810;9.204;2023-12-20T04:09:02;0.70;;;0.70;;
13764;SDS011;6953;48.810;9.204;2023-12-20T04:11:28;0.60;;;0.60;;
13764;SDS011;6953;48.810;9.204;2023-12-20T04:13:53;0.60;;;0.60;;
13764;SDS011;6953;48.810;9.204;2023-12-20T04:16:19;0.60;;;0.60;;
13764;SDS011;6953;48.810;9.204;2023-12-20T04:18:44;0.70;;;0.70;;
13764;SDS011;6953;48.810;9.204;2023-12-20T04:21:09;0.70;;;0.70;;
13764;SDS011;6953;48.810;9.204;2023-12-20T04:23:35;0.70;;;0.70;;
13764;SDS011;6953;48.810;9.204;2023-12-20T04:26:00;0.70;;;0.70;;
13764;SDS011;6953;48.810;9.204;2023-12-20T04:28:25;0.60;;;0.60;;
13764;SDS011;6953;48.810;9.204;2023-12-20T04:30:50;0.80;;;0.80;;
13764;SDS011;6953;48.810;9.204;2023-12-20T04:33:16;0.60;;;0.60;;
13764;SDS011;6953;48.810;9.204;2023-12-20T04:35:41;0.70;;;0.70;;
13764;SDS011;6953;48.810;9.204;2023-12-20T04:38:07;0.60;;;0.60;;
13764;SDS011;6953;48.810;9.204;2023-12-20T04:40:33;0.60;;;0.60;;
13764;SDS011;6953;48.810;9.204;2023-12-20T04:42:59;0.50;;;0.50;;
13764;SDS011;6953;48.810;9.204;2023-12-20T04:45:24;0.70;;;0.70;;
13764;SDS011;6953;48.810;9.204;2023-12-20T04:47:50;0.60;;;0.60;;
13764;SDS011;6953;48.810;9.204;2023-12-20T04:50:15;0.70;;;0.70;;
13764;SDS011;6953;48.810;9.204;2023-12-20T04:52:41;0.77;;;0.77;;
13764;SDS011;6953;48.810;9.204;2023-12-20T04:55:07;0.60;;;0.60;;
13764;SDS011;6953;48.810;9.204;2023-12-20T04:57:33;0.63;;;0.63;;
13764;SDS011;6953;48.810;9.204;2023-12-20T04:59:59;0.70;;;0.70;;
13764;SDS011;6953;48.810;9.204;2023-12-20T05:02:24;0.60;;;0.60;;
13764;SDS011;6953;48.810;9.204;2023-12-20T05:04:49;0.50;;;0.50;;
13764;SDS011;6953;48.810;9.204;2023-12-20T05:07:15;0.70;;;0.70;;
13764;SDS011;6953;48.810;9.204;2023-12-20T05:09:40;0.60;;;0.60;;
13764;SDS011;6953;48.810;9.204;2023-12-20T05:12:06;0.70;;;0.70;;
13764;SDS011;6953;48.810;9.204;2023-12-20T05:14:32;0.70;;;0.70;;
13764;SDS011;6953;48.810;9.204;2023-12-20T05:16:57;0.77;;;0.77;;
13764;SDS011;6953;48.810;9.204;2023-12-20T05:19:23;0.80;;;0.80;;
13764;SDS011;6953;48.810;9.204;2023-12-20T05:21:49;0.50;;;0.50;;
13764;SDS011;6953;48.810;9.204;2023-12-20T05:24:14;0.70;;;0.70;;
13764;SDS011;6953;48.810;9.204;2023-12-20T05:26:39;0.50;;;0.50;;
13764;SDS011;6953;48.810;9.204;2023-12-20T05:29:05;0.70;;;0.70;;
13764;SDS011;6953;48.810;9.204;2023-12-20T05:31:30;0.70;;;0.70;;
13764;SDS011;6953;48.810;9.204;2023-12-20T05:33:58;0.60;;;0.60;;
13764;SDS011;6953;48.810;9.204;2023-12-20T05:36:23;0.47;;;0.47;;
13764;SDS011;6953;48.810;9.204;2023-12-20T05:38:48;0.70;;;0.70;;
13764;SDS011;6953;48.810;9.204;2023-12-20T05:41:14;0.70;;;0.70;;
13764;SDS011;6953;48.810;9.204;2023-12-20T05:43:39;0.63;;;0.63;;
13764;SDS011;6953;48.810;9.204;2023-12-20T05:46:04;0.50;;;0.50;;
13764;SDS011;6953;48.810;9.204;2023-12-20T05:48:30;0.60;;;0.60;;
13764;SDS011;6953;48.810;9.204;2023-12-20T05:50:55;0.70;;;0.70;;
13764;SDS011;6953;48.810;9.204;2023-12-20T05:53:20;0.60;;;0.60;;
13764;SDS011;6953;48.810;9.204;2023-12-20T05:55:46;0.70;;;0.70;;
13764;SDS011;6953;48.810;9.204;2023-12-20T05:58:11;0.50;;;0.50;;
13764;SDS011;6953;48.810;9.204;2023-12-20T06:00:36;0.63;;;0.63;;
13764;SDS011;6953;48.810;9.204;2023-12-20T06:03:02;0.60;;;0.60;;
13764;SDS011;6953;48.810;9.204;2023-12-20T06:05:27;0.50;;;0.50;;
13764;SDS011;6953;48.810;9.204;2023-12-20T06:07:52;0.50;;;0.50;;
13764;SDS011;6953;48.810;9.204;2023-12-20T06:10:19;0.60;;;0.60;;
13764;SDS011;6953;48.810;9.204;2023-12-20T06:12:45;0.60;;;0.60;;
13764;SDS011;6953;48.810;9.204;2023-12-20T06:15:12;0.50;;;0.50;;
13764;SDS011;6953;48.810;9.204;2023-12-20T06:17:37;0.60;;;0.60;;
13764;SDS011;6953;48.810;9.204;2023-12-20T06:20:02;0.60;;;0.60;;
13764;SDS011;6953;48.810;9.204;2023-12-20T06:22:32;0.57;;;0.57;;
13764;SDS011;6953;48.810;9.204;2023-12-20T06:24:57;0.60;;;0.60;;
13764;SDS011;6953;48.810;9.204;2023-12-20T06:27:23;0.60;;;0.60;;
13764;SDS011;6953;48.810;9.204;2023-12-20T06:29:48;0.70;;;0.70;;
13764;SDS011;6953;48.810;9.204;2023-12-20T06:32:13;0.50;;;0.50;;
13764;SDS011;6953;48.810;9.204;2023-12-20T06:34:39;0.70;;;0.70;;
13764;SDS011;6953;48.810;9.204;2023-12-20T06:37:04;0.60;;;0.60;;
13764;SDS011;6953;48.810;9.204;2023-12-20T06:39:30;0.60;;;0.60;;
13764;SDS011;6953;48.810;9.204;2023-12-20T06:41:55;0.60;;;0.60;;
13764;SDS011;6953;48.810;9.204;2023-12-20T06:44:21;0.60;;;0.60;;
13764;SDS011;6953;48.810;9.204;2023-12-20T06:46:46;0.60;;;0.60;;
13764;SDS011;6953;48.810;9.204;2023-12-20T06:49:11;0.60;;;0.60;;
13764;SDS011;6953;48.810;9.204;2023-12-20T06:51:37;0.53;;;0.53;;
13764;SDS011;6953;48.810;9.204;2023-12-20T06:54:02;0.60;;;0.60;;
13764;SDS011;6953;48.810;9.204;2023-12-20T06:56:27;0.70;;;0.70;;
13764;SDS011;6953;48.810;9.204;2023-12-20T06:58:53;0.60;;;0.60;;
13764;SDS011;6953;48.810;9.204;2023-12-20T07:01:18;0.70;;;0.70;;
13764;SDS011;6953;48.810;9.204;2023-12-20T07:03:43;0.67;;;0.67;;
13764;SDS011;6953;48.810;9.204;2023-12-20T07:06:09;0.60;;;0.60;;
13764;SDS011;6953;48.810;9.204;2023-12-20T07:08:34;0.50;;;0.50;;
13764;SDS011;6953;48.810;9.204;2023-12-20T07:10:59;0.60;;;0.60;;
13764;SDS011;6953;48.810;9.204;2023-12-20T07:13:25;0.70;;;0.70;;
13764;SDS011;6953;48.810;9.204;2023-12-20T07:15:50;0.60;;;0.60;;
13764;SDS011;6953;48.810;9.204;2023-12-20T07:18:15;0.47;;;0.47;;
13764;SDS011;6953;48.810;9.204;2023-12-20T07:20:41;0.50;;;0.50;;
13764;SDS011;6953;48.810;9.204;2023-12-20T07:23:06;0.50;;;0.50;;
13764;SDS011;6953;48.810;9.204;2023-12-20T07:25:31;0.70;;;0.70;;
13764;SDS011;6953;48.810;9.204;2023-12-20T07:27:57;0.60;;;0.60;;
13764;SDS011;6953;48.810;9.204;2023-12-20T07:30:23;0.50;;;0.50;;
13764;SDS011;6953;48.810;9.204;2023-12-20T07:32:48;0.60;;;0.60;;
13764;SDS011;6953;48.810;9.204;2023-12-20T07:35:14;0.50;;;0.50;;
13764;SDS011;6953;48.810;9.204;2023-12-20T07:37:40;0.60;;;0.60;;
13764;SDS011;6953;48.810;9.204;2023-12-20T07:40:06;0.70;;;0.70;;
13764;SDS011;6953;48.810;9.204;2023-12-20T07:42:32;0.60;;;0.60;;
13764;SDS011;6953;48.810;9.204;2023-12-20T07:44:57;0.60;;;0.60;;
13764;SDS011;6953;48.810;9.204;2023-12-20T07:47:23;0.63;;;0.63;;
13764;SDS011;6953;48.810;9.204;2023-12-20T07:49:50;0.60;;;0.60;;
13764;SDS011;6953;48.810;9.204;2023-12-20T07:52:16;0.67;;;0.67;;
13764;SDS011;6953;48.810;9.204;2023-12-20T07:54:42;0.67;;;0.67;;
13764;SDS011;6953;48.810;9.204;2023-12-20T07:57:07;0.50;;;0.50;;
13764;SDS011;6953;48.810;9.204;2023-12-20T07:59:32;0.57;;;0.57;;
13764;SDS011;6953;48.810;9.204;2023-12-20T08:01:58;0.60;;;0.60;;
13764;SDS011;6953;48.810;9.204;2023-12-20T08:04:23;0.50;;;0.50;;
13764;SDS011;6953;48.810;9.204;2023-12-20T08:06:49;0.60;;;0.60;;
13764;SDS011;6953;48.810;9.204;2023-12-20T08:09:14;0.70;;;0.70;;
13764;SDS011;6953;48.810;9.204;2023-12-20T08:11:39;0.70;;;0.70;;
13764;SDS011;6953;48.810;9.204;2023-12-20T08:14:09;0.80;;;0.80;;
13764;SDS011;6953;48.810;9.204;2023-12-20T08:16:34;0.70;;;0.70;;
13764;SDS011;6953;48.810;9.204;2023-12-20T08:19:00;0.70;;;0.70;;
13764;SDS011;6953;48.810;9.204;2023-12-20T08:21:25;0.60;;;0.60;;
13764;SDS011;6953;48.810;9.204;2023-12-20T08:23:51;0.70;;;0.70;;
13764;SDS011;6953;48.810;9.204;2023-12-20T08:26:18;0.60;;;0.60;;
13764;SDS011;6953;48.810;9.204;2023-12-20T08:28:46;0.60;;;0.60;;
13764;SDS011;6953;48.810;9.204;2023-12-20T08:31:14;0.60;;;0.60;;
13764;SDS011;6953;48.810;9.204;2023-12-20T08:33:44;0.60;;;0.60;;
13764;SDS011;6953;48.810;9.204;2023-12-20T08:36:10;0.63;;;0.63;;
13764;SDS011;6953;48.810;9.204;2023-12-20T08:38:36;0.60;;;0.60;;
13764;SDS011;6953;48.810;9.204;2023-12-20T08:41:01;0.60;;;0.60;;
13764;SDS011;6953;48.810;9.204;2023-12-20T08:43:30;0.70;;;0.70;;
13764;SDS011;6953;48.810;9.204;2023-12-20T08:46:01;0.60;;;0.60;;
13764;SDS011;6953;48.810;9.204;2023-12-20T08:48:27;0.70;;;0.70;;
13764;SDS011;6953;48.810;9.204;2023-12-20T08:50:53;0.70;;;0.70;;
13764;SDS011;6953;48.810;9.204;2023-12-20T08:53:18;0.60;;;0.60;;
13764;SDS011;6953;48.810;9.204;2023-12-20T08:55:44;0.70;;;0.70;;
13764;SDS011;6953;48.810;9.204;2023-12-20T08:58:09;0.60;;;0.60;;
13764;SDS011;6953;48.810;9.204;2023-12-20T09:00:35;0.53;;;0.53;;
13764;SDS011;6953;48.810;9.204;2023-12-20T09:03:03;0.60;;;0.60;;
13764;SDS011;6953;48.810;9.204;2023-12-20T09:05:29;0.60;;;0.60;;
13764;SDS011;6953;48.810;9.204;2023-12-20T09:07:55;0.70;;;0.70;;
13764;SDS011;6953;48.810;9.204;2023-12-20T09:10:20;0.47;;;0.47;;
13764;SDS011;6953;48.810;9.204;2023-12-20T09:12:50;0.60;;;0.60;;
13764;SDS011;6953;48.810;9.204;2023-12-20T09:15:16;0.60;;;0.60;;
13764;SDS011;6953;48.810;9.204;2023-12-20T09:17:42;0.60;;;0.60;;
13764;SDS011;6953;48.810;9.204;2023-12-20T09:20:08;0.50;;;0.50;;
13764;SDS011;6953;48.810;9.204;2023-12-20T09:22:34;0.60;;;0.60;;
13764;SDS011;6953;48.810;9.204;2023-12-20T09:25:01;0.60;;;0.60;;
13764;SDS011;6953;48.810;9.204;2023-12-20T09:27:27;0.68;;;0.68;;
13764;SDS011;6953;48.810;9.204;2023-12-20T09:29:52;0.50;;;0.50;;
13764;SDS011;6953;48.810;9.204;2023-12-20T09:32:18;0.50;;;0.50;;
13764;SDS011;6953;48.810;9.204;2023-12-20T09:34:45;0.40;;;0.40;;
13764;SDS011;6953;48.810;9.204;2023-12-20T09:37:10;0.45;;;0.45;;
13764;SDS011;6953;48.810;9.204;2023-12-20T09:39:35;0.32;;;0.32;;
13764;SDS011;6953;48.810;9.204;2023-12-20T09:42:04;0.30;;;0.30;;
13764;SDS011;6953;48.810;9.204;2023-12-20T09:44:31;0.30;;;0.30;;
13764;SDS011;6953;48.810;9.204;2023-12-20T09:46:58;0.30;;;0.30;;
13764;SDS011;6953;48.810;9.204;2023-12-20T09:49:23;0.28;;;0.28;;
13764;SDS011;6953;48.810;9.204;2023-12-20T09:51:50;0.25;;;0.25;;
13764;SDS011;6953;48.810;9.204;2023-12-20T09:54:17;0.20;;;0.20;;
13764;SDS011;6953;48.810;9.204;2023-12-20T09:56:43;0.20;;;0.20;;
13764;SDS011;6953;48.810;9.204;2023-12-20T09:59:08;0.20;;;0.20;;
13764;SDS011;6953;48.810;9.204;2023-12-20T10:01:34;0.20;;;0.20;;
13764;SDS011;6953;48.810;9.204;2023-12-20T10:04:01;0.20;;;0.20;;
13764;SDS011;6953;48.810;9.204;2023-12-20T10:06:33;0.30;;;0.30;;
13764;SDS011;6953;48.810;9.204;2023-12-20T10:08:59;0.20;;;0.20;;
13764;SDS011;6953;48.810;9.204;2023-12-20T10:11:25;0.25;;;0.25;;
13764;SDS011;6953;48.810;9.204;2023-12-20T10:13:50;0.20;;;0.20;;
13764;SDS011;6953;48.810;9.204;2023-12-20T10:16:15;0.20;;;0.20;;
13764;SDS011;6953;48.810;9.204;2023-12-20T10:18:41;0.20;;;0.20;;
13764;SDS011;6953;48.810;9.204;2023-12-20T10:21:06;0.30;;;0.30;;
13764;SDS011;6953;48.810;9.204;2023-12-20T10:23:34;0.30;;;0.30;;
13764;SDS011;6953;48.810;9.204;2023-12-20T10:26:00;0.30;;;0.30;;
13764;SDS011;6953;48.810;9.204;2023-12-20T10:28:26;0.40;;;0.40;;
13764;SDS011;6953;48.810;9.204;2023-12-20T10:30:54;0.50;;;0.50;;
13764;SDS011;6953;48.810;9.204;2023-12-20T10:33:26;0.40;;;0.40;;
13764;SDS011;6953;48.810;9.204;2023-12-20T10:35:57;0.50;;;0.50;;
13764;SDS011;6953;48.810;9.204;2023-12-20T10:38:22;0.50;;;0.50;;
13764;SDS011;6953;48.810;9.204;2023-12-20T10:40:48;0.60;;;0.60;;
13764;SDS011;6953;48.810;9.204;2023-12-20T10:43:18;0.50;;;0.50;;
13764;SDS011;6953;48.810;9.204;2023-12-20T10:45:44;0.50;;;0.50;;
13764;SDS011;6953;48.810;9.204;2023-12-20T10:48:10;0.60;;;0.60;;
13764;SDS011;6953;48.810;9.204;2023-12-20T10:50:37;0.60;;;0.60;;
13764;SDS011;6953;48.810;9.204;2023-12-20T10:53:03;0.57;;;0.57;;
13764;SDS011;6953;48.810;9.204;2023-12-20T10:55:29;0.50;;;0.50;;
13764;SDS011;6953;48.810;9.204;2023-12-20T10:57:56;0.50;;;0.50;;
13764;SDS011;6953;48.810;9.204;2023-12-20T11:00:42;0.60;;;0.60;;
13764;SDS011;6953;48.810;9.204;2023-12-20T11:03:11;0.70;;;0.70;;
13764;SDS011;6953;48.810;9.204;2023-12-20T11:05:48;0.50;;;0.50;;
13764;SDS011;6953;48.810;9.204;2023-12-20T11:08:33;0.55;;;0.55;;
13764;SDS011;6953;48.810;9.204;2023-12-20T11:11:05;0.50;;;0.50;;
13764;SDS011;6953;48.810;9.204;2023-12-20T11:13:39;0.50;;;0.50;;
13764;SDS011;6953;48.810;9.204;2023-12-20T11:16:09;0.52;;;0.52;;
13764;SDS011;6953;48.810;9.204;2023-12-20T11:18:35;0.60;;;0.60;;
13764;SDS011;6953;48.810;9.204;2023-12-20T11:21:01;0.50;;;0.50;;
13764;SDS011;6953;48.810;9.204;2023-12-20T11:23:29;0.60;;;0.60;;
13764;SDS011;6953;48.810;9.204;2023-12-20T11:25:55;0.50;;;0.50;;
13764;SDS011;6953;48.810;9.204;2023-12-20T11:28:25;0.50;;;0.50;;
13764;SDS011;6953;48.810;9.204;2023-12-20T11:30:54;0.60;;;0.60;;
13764;SDS011;6953;48.810;9.204;2023-12-20T11:33:24;0.50;;;0.50;;
13764;SDS011;6953;48.810;9.204;2023-12-20T11:35:51;0.60;;;0.60;;
13764;SDS011;6953;48.810;9.204;2023-12-20T11:38:17;0.50;;;0.50;;
13764;SDS011;6953;48.810;9.204;2023-12-20T11:40:45;0.60;;;0.60;;
13764;SDS011;6953;48.810;9.204;2023-12-20T11:43:15;0.50;;;0.50;;
13764;SDS011;6953;48.810;9.204;2023-12-20T11:45:54;0.50;;;0.50;;
13764;SDS011;6953;48.810;9.204;2023-12-20T11:48:20;0.60;;;0.60;;
13764;SDS011;6953;48.810;9.204;2023-12-20T11:50:46;0.57;;;0.57;;
13764;SDS011;6953;48.810;9.204;2023-12-20T11:53:11;0.50;;;0.50;;
13764;SDS011;6953;48.810;9.204;2023-12-20T11:55:37;0.60;;;0.60;;
13764;SDS011;6953;48.810;9.204;2023-12-20T11:58:02;0.55;;;0.55;;
13764;SDS011;6953;48.810;9.204;2023-12-20T12:00:28;0.50;;;0.50;;
13764;SDS011;6953;48.810;9.204;2023-12-20T12:03:00;0.60;;;0.60;;
13764;SDS011;6953;48.810;9.204;2023-12-20T12:05:27;0.60;;;0.60;;
13764;SDS011;6953;48.810;9.204;2023-12-20T12:07:53;0.50;;;0.50;;
13764;SDS011;6953;48.810;9.204;2023-12-20T12:10:18;0.60;;;0.60;;
13764;SDS011;6953;48.810;9.204;2023-12-20T12:12:43;0.60;;;0.60;;
13764;SDS011;6953;48.810;9.204;2023-12-20T12:15:09;0.60;;;0.60;;
13764;SDS011;6953;48.810;9.204;2023-12-20T12:17:35;0.50;;;0.50;;
13764;SDS011;6953;48.810;9.204;2023-12-20T12:20:03;0.40;;;0.40;;
13764;SDS011;6953;48.810;9.204;2023-12-20T12:22:30;0.60;;;0.60;;
13764;SDS011;6953;48.810;9.204;2023-12-20T12:24:58;0.50;;;0.50;;
13764;SDS011;6953;48.810;9.204;2023-12-20T12:27:24;0.43;;;0.43;;
13764;SDS011;6953;48.810;9.204;2023-12-20T12:30:02;0.60;;;0.60;;
13764;SDS011;6953;48.810;9.204;2023-12-20T12:32:28;0.50;;;0.50;;
13764;SDS011;6953;48.810;9.204;2023-12-20T12:34:54;0.57;;;0.57;;
13764;SDS011;6953;48.810;9.204;2023-12-20T12:37:19;0.50;;;0.50;;
13764;SDS011;6953;48.810;9.204;2023-12-20T12:39:46;0.50;;;0.50;;
13764;SDS011;6953;48.810;9.204;2023-12-20T12:45:33;0.50;;;0.50;;
13764;SDS011;6953;48.810;9.204;2023-12-20T12:51:20;0.57;;;0.57;;
13764;SDS011;6953;48.810;9.204;2023-12-20T12:53:46;0.60;;;0.60;;
13764;SDS011;6953;48.810;9.204;2023-12-20T12:56:12;0.52;;;0.52;;
13764;SDS011;6953;48.810;9.204;2023-12-20T12:58:37;0.60;;;0.60;;
13764;SDS011;6953;48.810;9.204;2023-12-20T13:01:03;0.60;;;0.60;;
13764;SDS011;6953;48.810;9.204;2023-12-20T13:03:28;0.60;;;0.60;;
13764;SDS011;6953;48.810;9.204;2023-12-20T13:05:53;0.60;;;0.60;;
13764;SDS011;6953;48.810;9.204;2023-12-20T13:08:20;0.60;;;0.60;;
13764;SDS011;6953;48.810;9.204;2023-12-20T13:10:45;0.50;;;0.50;;
13764;SDS011;6953;48.810;9.204;2023-12-20T13:13:10;0.70;;;0.70;;
13764;SDS011;6953;48.810;9.204;2023-12-20T13:15:36;0.50;;;0.50;;
13764;SDS011;6953;48.810;9.204;2023-12-20T13:18:01;0.60;;;0.60;;
13764;SDS011;6953;48.810;9.204;2023-12-20T13:20:29;0.55;;;0.55;;
13764;SDS011;6953;48.810;9.204;2023-12-20T13:22:54;0.60;;;0.60;;
13764;SDS011;6953;48.810;9.204;2023-12-20T13:25:20;0.50;;;0.50;;
13764;SDS011;6953;48.810;9.204;2023-12-20T13:27:45;0.50;;;0.50;;
13764;SDS011;6953;48.810;9.204;2023-12-20T13:30:10;0.50;;;0.50;;
13764;SDS011;6953;48.810;9.204;2023-12-20T13:35:58;0.60;;;0.60;;
13764;SDS011;6953;48.810;9.204;2023-12-20T13:38:24;0.52;;;0.52;;
13764;SDS011;6953;48.810;9.204;2023-12-20T13:40:50;0.60;;;0.60;;
13764;SDS011;6953;48.810;9.204;2023-12-20T13:43:15;0.60;;;0.60;;
13764;SDS011;6953;48.810;9.204;2023-12-20T13:45:45;0.60;;;0.60;;
13764;SDS011;6953;48.810;9.204;2023-12-20T13:48:10;0.63;;;0.63;;
13764;SDS011;6953;48.810;9.204;2023-12-20T13:50:36;0.50;;;0.50;;
13764;SDS011;6953;48.810;9.204;2023-12-20T13:56:23;0.60;;;0.60;;
13764;SDS011;6953;48.810;9.204;2023-12-20T13:58:48;0.60;;;0.60;;
13764;SDS011;6953;48.810;9.204;2023-12-20T14:01:15;0.60;;;0.60;;
13764;SDS011;6953;48.810;9.204;2023-12-20T14:03:41;0.60;;;0.60;;
13764;SDS011;6953;48.810;9.204;2023-12-20T14:06:06;0.60;;;0.60;;
13764;SDS011;6953;48.810;9.204;2023-12-20T14:08:31;0.68;;;0.68;;
13764;SDS011;6953;48.810;9.204;2023-12-20T14:14:19;0.60;;;0.60;;
13764;SDS011;6953;48.810;9.204;2023-12-20T14:16:44;0.50;;;0.50;;
13764;SDS011;6953;48.810;9.204;2023-12-20T14:19:10;0.57;;;0.57;;
13764;SDS011;6953;48.810;9.204;2023-12-20T14:21:35;0.50;;;0.50;;
13764;SDS011;6953;48.810;9.204;2023-12-20T14:24:01;0.50;;;0.50;;
13764;SDS011;6953;48.810;9.204;2023-12-20T14:26:26;0.60;;;0.60;;
13764;SDS011;6953;48.810;9.204;2023-12-20T14:28:53;0.70;;;0.70;;
13764;SDS011;6953;48.810;9.204;2023-12-20T14:31:18;0.70;;;0.70;;
13764;SDS011;6953;48.810;9.204;2023-12-20T14:33:43;0.60;;;0.60;;
13764;SDS011;6953;48.810;9.204;2023-12-20T14:36:09;0.63;;;0.63;;
13764;SDS011;6953;48.810;9.204;2023-12-20T14:38:34;0.50;;;0.50;;
13764;SDS011;6953;48.810;9.204;2023-12-20T14:41:00;0.60;;;0.60;;
13764;SDS011;6953;48.810;9.204;2023-12-20T14:43:25;0.50;;;0.50;;
13764;SDS011;6953;48.810;9.204;2023-12-20T14:45:51;0.50;;;0.50;;
13764;SDS011;6953;48.810;9.204;2023-12-20T14:48:17;0.60;;;0.60;;
13764;SDS011;6953;48.810;9.204;2023-12-20T14:50:43;0.60;;;0.60;;
13764;SDS011;6953;48.810;9.204;2023-12-20T14:53:08;0.52;;;0.52;;
13764;SDS011;6953;48.810;9.204;2023-12-20T14:55:34;0.50;;;0.50;;
13764;SDS011;6953;48.810;9.204;2023-12-20T14:57:59;0.50;;;0.50;;
13764;SDS011;6953;48.810;9.204;2023-12-20T15:00:25;0.63;;;0.63;;
13764;SDS011;6953;48.810;9.204;2023-12-20T15:02:51;0.70;;;0.70;;
13764;SDS011;6953;48.810;9.204;2023-12-20T15:05:16;0.60;;;0.60;;
13764;SDS011;6953;48.810;9.204;2023-12-20T15:07:42;0.57;;;0.57;;
13764;SDS011;6953;48.810;9.204;2023-12-20T15:10:08;0.50;;;0.50;;